sensor_id;sensor_type;location;lat;lon;timestamp;P1;durP1;ratioP1;P2;durP2;ratioP2
84392;SDS011;74592;48.846;2.358;2024-02-04T00:00:32;93.22;;;69.55;;
84392;SDS011;74592;48.846;2.358;2024-02-04T00:02:58;91.63;;;65.63;;
84392;SDS011;74592;48.846;2.358;2024-02-04T00:05:23;87.97;;;63.85;;
84392;SDS011;74592;48.846;2.358;2024-02-04T00:07:49;87.40;;;64.35;;
84392;SDS011;74592;48.846;2.358;2024-02-04T00:10:15;83.68;;;61.92;;
84392;SDS011;74592;48.846;2.358;2024-02-04T00:12:42;82.78;;;59.88;;
84392;SDS011;74592;48.846;2.358;2024-02-04T00:15:08;77.80;;;56.53;;
84392;SDS011;74592;48.846;2.358;2024-02-04T00:17:33;76.05;;;55.03;;
84392;SDS011;74592;48.846;2.358;2024-02-04T00:19:59;79.32;;;55.97;;
84392;SDS011;74592;48.846;2.358;2024-02-04T00:22:26;71.97;;;51.05;;
84392;SDS011;74592;48.846;2.358;2024-02-04T00:24:52;70.95;;;51.60;;
84392;SDS011;74592;48.846;2.358;2024-02-04T00:27:17;68.68;;;49.95;;
84392;SDS011;74592;48.846;2.358;2024-02-04T00:29:43;68.88;;;49.90;;
84392;SDS011;74592;48.846;2.358;2024-02-04T00:32:09;66.07;;;48.65;;
84392;SDS011;74592;48.846;2.358;2024-02-04T00:34:34;68.93;;;46.67;;
84392;SDS011;74592;48.846;2.358;2024-02-04T00:37:00;63.13;;;47.25;;
84392;SDS011;74592;48.846;2.358;2024-02-04T00:39:25;64.88;;;46.40;;
84392;SDS011;74592;48.846;2.358;2024-02-04T00:41:51;63.45;;;45.63;;
84392;SDS011;74592;48.846;2.358;2024-02-04T00:44:16;59.55;;;44.38;;
84392;SDS011;74592;48.846;2.358;2024-02-04T00:46:42;54.95;;;41.33;;
84392;SDS011;74592;48.846;2.358;2024-02-04T00:49:09;55.20;;;39.97;;
84392;SDS011;74592;48.846;2.358;2024-02-04T00:51:34;56.90;;;42.47;;
84392;SDS011;74592;48.846;2.358;2024-02-04T00:54:00;59.63;;;40.75;;
84392;SDS011;74592;48.846;2.358;2024-02-04T00:56:26;52.30;;;38.58;;
84392;SDS011;74592;48.846;2.358;2024-02-04T00:58:51;53.90;;;39.38;;
84392;SDS011;74592;48.846;2.358;2024-02-04T01:01:17;53.67;;;39.13;;
84392;SDS011;74592;48.846;2.358;2024-02-04T01:03:44;50.65;;;36.70;;
84392;SDS011;74592;48.846;2.358;2024-02-04T01:06:10;48.42;;;35.15;;
84392;SDS011;74592;48.846;2.358;2024-02-04T01:08:35;51.72;;;35.60;;
84392;SDS011;74592;48.846;2.358;2024-02-04T01:11:02;49.22;;;36.63;;
84392;SDS011;74592;48.846;2.358;2024-02-04T01:13:29;47.00;;;35.08;;
84392;SDS011;74592;48.846;2.358;2024-02-04T01:15:55;45.97;;;34.30;;
84392;SDS011;74592;48.846;2.358;2024-02-04T01:18:20;43.15;;;32.60;;
84392;SDS011;74592;48.846;2.358;2024-02-04T01:20:46;45.95;;;31.73;;
84392;SDS011;74592;48.846;2.358;2024-02-04T01:23:12;42.72;;;31.63;;
84392;SDS011;74592;48.846;2.358;2024-02-04T01:25:38;44.63;;;31.80;;
84392;SDS011;74592;48.846;2.358;2024-02-04T01:28:03;40.30;;;30.52;;
84392;SDS011;74592;48.846;2.358;2024-02-04T01:30:29;39.60;;;28.70;;
84392;SDS011;74592;48.846;2.358;2024-02-04T01:32:56;38.05;;;27.83;;
84392;SDS011;74592;48.846;2.358;2024-02-04T01:35:22;37.42;;;26.48;;
84392;SDS011;74592;48.846;2.358;2024-02-04T01:37:47;38.53;;;26.77;;
84392;SDS011;74592;48.846;2.358;2024-02-04T01:40:13;34.72;;;26.08;;
84392;SDS011;74592;48.846;2.358;2024-02-04T01:42:39;36.22;;;27.27;;
84392;SDS011;74592;48.846;2.358;2024-02-04T01:45:05;33.45;;;24.35;;
84392;SDS011;74592;48.846;2.358;2024-02-04T01:47:32;36.20;;;25.90;;
84392;SDS011;74592;48.846;2.358;2024-02-04T01:49:58;34.10;;;24.33;;
84392;SDS011;74592;48.846;2.358;2024-02-04T01:52:24;33.22;;;24.95;;
84392;SDS011;74592;48.846;2.358;2024-02-04T01:54:50;33.45;;;23.45;;
84392;SDS011;74592;48.846;2.358;2024-02-04T01:57:18;31.48;;;22.27;;
84392;SDS011;74592;48.846;2.358;2024-02-04T01:59:44;31.80;;;22.35;;
84392;SDS011;74592;48.846;2.358;2024-02-04T02:02:12;30.63;;;22.05;;
84392;SDS011;74592;48.846;2.358;2024-02-04T02:04:38;30.67;;;23.17;;
84392;SDS011;74592;48.846;2.358;2024-02-04T02:07:04;32.08;;;23.02;;
84392;SDS011;74592;48.846;2.358;2024-02-04T02:09:30;30.63;;;21.90;;
84392;SDS011;74592;48.846;2.358;2024-02-04T02:14:44;32.10;;;21.63;;
84392;SDS011;74592;48.846;2.358;2024-02-04T02:17:15;26.83;;;19.83;;
84392;SDS011;74592;48.846;2.358;2024-02-04T02:19:56;26.20;;;19.23;;
84392;SDS011;74592;48.846;2.358;2024-02-04T02:22:32;26.20;;;19.10;;
84392;SDS011;74592;48.846;2.358;2024-02-04T02:25:10;25.58;;;19.20;;
84392;SDS011;74592;48.846;2.358;2024-02-04T02:27:50;25.80;;;19.33;;
84392;SDS011;74592;48.846;2.358;2024-02-04T02:30:16;24.90;;;18.10;;
84392;SDS011;74592;48.846;2.358;2024-02-04T02:32:45;22.63;;;17.40;;
84392;SDS011;74592;48.846;2.358;2024-02-04T02:35:13;23.63;;;17.63;;
84392;SDS011;74592;48.846;2.358;2024-02-04T02:40:45;21.88;;;16.27;;
84392;SDS011;74592;48.846;2.358;2024-02-04T02:43:19;21.33;;;16.50;;
84392;SDS011;74592;48.846;2.358;2024-02-04T02:45:46;23.48;;;16.30;;
84392;SDS011;74592;48.846;2.358;2024-02-04T02:48:11;20.90;;;15.57;;
84392;SDS011;74592;48.846;2.358;2024-02-04T02:50:38;21.15;;;15.43;;
84392;SDS011;74592;48.846;2.358;2024-02-04T02:53:04;19.98;;;14.60;;
84392;SDS011;74592;48.846;2.358;2024-02-04T02:55:29;20.83;;;14.35;;
84392;SDS011;74592;48.846;2.358;2024-02-04T02:57:55;18.35;;;14.23;;
84392;SDS011;74592;48.846;2.358;2024-02-04T03:00:21;18.65;;;13.90;;
84392;SDS011;74592;48.846;2.358;2024-02-04T03:02:46;19.83;;;14.50;;
84392;SDS011;74592;48.846;2.358;2024-02-04T03:05:12;17.15;;;13.15;;
84392;SDS011;74592;48.846;2.358;2024-02-04T03:07:40;17.38;;;12.55;;
84392;SDS011;74592;48.846;2.358;2024-02-04T03:10:06;16.58;;;12.23;;
84392;SDS011;74592;48.846;2.358;2024-02-04T03:12:31;16.02;;;12.38;;
84392;SDS011;74592;48.846;2.358;2024-02-04T03:14:57;17.35;;;12.00;;
84392;SDS011;74592;48.846;2.358;2024-02-04T03:17:23;15.23;;;10.70;;
84392;SDS011;74592;48.846;2.358;2024-02-04T03:19:49;15.38;;;10.73;;
84392;SDS011;74592;48.846;2.358;2024-02-04T03:22:16;13.95;;;10.55;;
84392;SDS011;74592;48.846;2.358;2024-02-04T03:24:42;15.02;;;11.27;;
84392;SDS011;74592;48.846;2.358;2024-02-04T03:27:08;12.93;;;9.40;;
84392;SDS011;74592;48.846;2.358;2024-02-04T03:29:34;12.93;;;9.55;;
84392;SDS011;74592;48.846;2.358;2024-02-04T03:31:59;12.95;;;9.60;;
84392;SDS011;74592;48.846;2.358;2024-02-04T03:34:25;15.23;;;9.77;;
84392;SDS011;74592;48.846;2.358;2024-02-04T03:36:50;14.50;;;9.75;;
84392;SDS011;74592;48.846;2.358;2024-02-04T03:39:16;12.52;;;8.75;;
84392;SDS011;74592;48.846;2.358;2024-02-04T03:41:41;12.93;;;8.38;;
84392;SDS011;74592;48.846;2.358;2024-02-04T03:44:07;12.23;;;8.63;;
84392;SDS011;74592;48.846;2.358;2024-02-04T03:46:33;12.70;;;9.00;;
84392;SDS011;74592;48.846;2.358;2024-02-04T03:48:58;11.50;;;8.40;;
84392;SDS011;74592;48.846;2.358;2024-02-04T03:51:24;11.93;;;7.80;;
84392;SDS011;74592;48.846;2.358;2024-02-04T03:53:50;12.15;;;8.60;;
84392;SDS011;74592;48.846;2.358;2024-02-04T03:56:16;10.80;;;7.97;;
84392;SDS011;74592;48.846;2.358;2024-02-04T03:58:42;14.57;;;7.75;;
84392;SDS011;74592;48.846;2.358;2024-02-04T04:01:11;10.77;;;7.97;;
84392;SDS011;74592;48.846;2.358;2024-02-04T04:03:40;10.95;;;8.35;;
84392;SDS011;74592;48.846;2.358;2024-02-04T04:06:06;9.90;;;6.85;;
84392;SDS011;74592;48.846;2.358;2024-02-04T04:08:32;10.48;;;7.95;;
84392;SDS011;74592;48.846;2.358;2024-02-04T04:10:58;9.73;;;6.95;;
84392;SDS011;74592;48.846;2.358;2024-02-04T04:13:23;10.90;;;6.93;;
84392;SDS011;74592;48.846;2.358;2024-02-04T04:15:50;8.65;;;6.25;;
84392;SDS011;74592;48.846;2.358;2024-02-04T04:18:16;9.60;;;6.65;;
84392;SDS011;74592;48.846;2.358;2024-02-04T04:20:41;9.48;;;6.45;;
84392;SDS011;74592;48.846;2.358;2024-02-04T04:23:07;9.35;;;6.10;;
84392;SDS011;74592;48.846;2.358;2024-02-04T04:25:33;7.78;;;5.72;;
84392;SDS011;74592;48.846;2.358;2024-02-04T04:27:58;10.98;;;6.00;;
84392;SDS011;74592;48.846;2.358;2024-02-04T04:30:24;7.85;;;5.82;;
84392;SDS011;74592;48.846;2.358;2024-02-04T04:32:50;9.32;;;5.57;;
84392;SDS011;74592;48.846;2.358;2024-02-04T04:35:15;8.38;;;5.72;;
84392;SDS011;74592;48.846;2.358;2024-02-04T04:37:41;9.38;;;6.05;;
84392;SDS011;74592;48.846;2.358;2024-02-04T04:40:07;7.93;;;5.60;;
84392;SDS011;74592;48.846;2.358;2024-02-04T04:42:33;7.60;;;5.53;;
84392;SDS011;74592;48.846;2.358;2024-02-04T04:44:58;8.60;;;5.57;;
84392;SDS011;74592;48.846;2.358;2024-02-04T04:47:24;7.93;;;5.78;;
84392;SDS011;74592;48.846;2.358;2024-02-04T04:49:50;8.63;;;5.28;;
84392;SDS011;74592;48.846;2.358;2024-02-04T04:52:16;8.05;;;5.78;;
84392;SDS011;74592;48.846;2.358;2024-02-04T04:54:42;16.27;;;5.18;;
84392;SDS011;74592;48.846;2.358;2024-02-04T04:57:07;9.25;;;5.22;;
84392;SDS011;74592;48.846;2.358;2024-02-04T04:59:33;7.03;;;4.97;;
84392;SDS011;74592;48.846;2.358;2024-02-04T05:02:01;7.82;;;4.80;;
84392;SDS011;74592;48.846;2.358;2024-02-04T05:04:27;6.60;;;4.43;;
84392;SDS011;74592;48.846;2.358;2024-02-04T05:06:52;7.22;;;5.00;;
84392;SDS011;74592;48.846;2.358;2024-02-04T05:09:18;5.80;;;4.10;;
84392;SDS011;74592;48.846;2.358;2024-02-04T05:11:43;7.25;;;4.70;;
84392;SDS011;74592;48.846;2.358;2024-02-04T05:14:09;6.47;;;4.38;;
84392;SDS011;74592;48.846;2.358;2024-02-04T05:16:35;6.80;;;4.45;;
84392;SDS011;74592;48.846;2.358;2024-02-04T05:19:01;5.90;;;4.10;;
84392;SDS011;74592;48.846;2.358;2024-02-04T05:21:27;6.43;;;4.35;;
84392;SDS011;74592;48.846;2.358;2024-02-04T05:23:53;5.30;;;4.00;;
84392;SDS011;74592;48.846;2.358;2024-02-04T05:26:18;6.75;;;4.45;;
84392;SDS011;74592;48.846;2.358;2024-02-04T05:28:44;5.78;;;3.83;;
84392;SDS011;74592;48.846;2.358;2024-02-04T05:31:10;5.57;;;3.50;;
84392;SDS011;74592;48.846;2.358;2024-02-04T05:33:36;5.93;;;3.58;;
84392;SDS011;74592;48.846;2.358;2024-02-04T05:36:01;6.57;;;3.97;;
84392;SDS011;74592;48.846;2.358;2024-02-04T05:38:27;5.95;;;3.80;;
84392;SDS011;74592;48.846;2.358;2024-02-04T05:40:53;6.45;;;3.53;;
84392;SDS011;74592;48.846;2.358;2024-02-04T05:43:18;6.18;;;4.22;;
84392;SDS011;74592;48.846;2.358;2024-02-04T05:45:44;5.22;;;3.42;;
84392;SDS011;74592;48.846;2.358;2024-02-04T05:48:09;5.78;;;3.40;;
84392;SDS011;74592;48.846;2.358;2024-02-04T05:50:35;6.53;;;3.17;;
84392;SDS011;74592;48.846;2.358;2024-02-04T05:53:01;7.03;;;3.47;;
84392;SDS011;74592;48.846;2.358;2024-02-04T05:55:27;6.50;;;3.40;;
84392;SDS011;74592;48.846;2.358;2024-02-04T05:57:53;5.57;;;3.45;;
84392;SDS011;74592;48.846;2.358;2024-02-04T06:00:19;5.72;;;3.22;;
84392;SDS011;74592;48.846;2.358;2024-02-04T06:02:45;7.13;;;3.30;;
84392;SDS011;74592;48.846;2.358;2024-02-04T06:05:13;4.53;;;2.70;;
84392;SDS011;74592;48.846;2.358;2024-02-04T06:07:39;4.35;;;2.80;;
84392;SDS011;74592;48.846;2.358;2024-02-04T06:10:10;4.30;;;2.78;;
84392;SDS011;74592;48.846;2.358;2024-02-04T06:12:36;4.82;;;2.40;;
84392;SDS011;74592;48.846;2.358;2024-02-04T06:15:02;4.30;;;2.75;;
84392;SDS011;74592;48.846;2.358;2024-02-04T06:17:29;5.07;;;3.03;;
84392;SDS011;74592;48.846;2.358;2024-02-04T06:19:54;4.85;;;3.05;;
84392;SDS011;74592;48.846;2.358;2024-02-04T06:22:20;3.50;;;2.60;;
84392;SDS011;74592;48.846;2.358;2024-02-04T06:24:45;3.67;;;2.38;;
84392;SDS011;74592;48.846;2.358;2024-02-04T06:27:11;3.88;;;2.42;;
84392;SDS011;74592;48.846;2.358;2024-02-04T06:29:37;6.07;;;2.60;;
84392;SDS011;74592;48.846;2.358;2024-02-04T06:32:04;3.38;;;1.90;;
84392;SDS011;74592;48.846;2.358;2024-02-04T06:34:30;3.65;;;2.20;;
84392;SDS011;74592;48.846;2.358;2024-02-04T06:36:55;3.60;;;2.20;;
84392;SDS011;74592;48.846;2.358;2024-02-04T06:39:21;8.93;;;2.45;;
84392;SDS011;74592;48.846;2.358;2024-02-04T06:41:46;4.28;;;2.20;;
84392;SDS011;74592;48.846;2.358;2024-02-04T06:44:12;4.15;;;2.05;;
84392;SDS011;74592;48.846;2.358;2024-02-04T06:46:38;4.85;;;2.25;;
84392;SDS011;74592;48.846;2.358;2024-02-04T06:49:03;3.80;;;2.40;;
84392;SDS011;74592;48.846;2.358;2024-02-04T06:51:29;3.90;;;2.17;;
84392;SDS011;74592;48.846;2.358;2024-02-04T06:53:54;3.70;;;2.42;;
84392;SDS011;74592;48.846;2.358;2024-02-04T06:56:20;3.13;;;2.03;;
84392;SDS011;74592;48.846;2.358;2024-02-04T06:58:46;3.05;;;1.92;;
84392;SDS011;74592;48.846;2.358;2024-02-04T07:01:11;5.57;;;2.10;;
84392;SDS011;74592;48.846;2.358;2024-02-04T07:03:37;4.13;;;2.00;;
84392;SDS011;74592;48.846;2.358;2024-02-04T07:06:03;3.20;;;1.80;;
84392;SDS011;74592;48.846;2.358;2024-02-04T07:08:29;2.38;;;1.63;;
84392;SDS011;74592;48.846;2.358;2024-02-04T07:10:55;3.35;;;1.88;;
84392;SDS011;74592;48.846;2.358;2024-02-04T07:13:20;4.60;;;2.15;;
84392;SDS011;74592;48.846;2.358;2024-02-04T07:15:47;2.83;;;2.03;;
84392;SDS011;74592;48.846;2.358;2024-02-04T07:18:13;2.85;;;1.80;;
84392;SDS011;74592;48.846;2.358;2024-02-04T07:20:38;3.00;;;1.80;;
84392;SDS011;74592;48.846;2.358;2024-02-04T07:23:04;3.38;;;2.35;;
84392;SDS011;74592;48.846;2.358;2024-02-04T07:25:30;3.95;;;1.70;;
84392;SDS011;74592;48.846;2.358;2024-02-04T07:27:56;3.47;;;1.83;;
84392;SDS011;74592;48.846;2.358;2024-02-04T07:30:23;3.42;;;1.80;;
84392;SDS011;74592;48.846;2.358;2024-02-04T07:32:49;2.88;;;1.50;;
84392;SDS011;74592;48.846;2.358;2024-02-04T07:35:14;2.70;;;1.60;;
84392;SDS011;74592;48.846;2.358;2024-02-04T07:37:40;2.63;;;1.58;;
84392;SDS011;74592;48.846;2.358;2024-02-04T07:40:06;2.25;;;1.38;;
84392;SDS011;74592;48.846;2.358;2024-02-04T07:42:32;3.63;;;1.70;;
84392;SDS011;74592;48.846;2.358;2024-02-04T07:44:58;2.67;;;1.35;;
84392;SDS011;74592;48.846;2.358;2024-02-04T07:47:23;3.55;;;1.27;;
84392;SDS011;74592;48.846;2.358;2024-02-04T07:49:49;2.60;;;1.40;;
84392;SDS011;74592;48.846;2.358;2024-02-04T07:52:15;2.65;;;1.45;;
84392;SDS011;74592;48.846;2.358;2024-02-04T07:54:41;2.78;;;1.58;;
84392;SDS011;74592;48.846;2.358;2024-02-04T07:57:08;3.83;;;1.35;;
84392;SDS011;74592;48.846;2.358;2024-02-04T07:59:37;3.38;;;1.38;;
84392;SDS011;74592;48.846;2.358;2024-02-04T08:02:02;2.10;;;1.30;;
84392;SDS011;74592;48.846;2.358;2024-02-04T08:04:28;2.90;;;1.25;;
84392;SDS011;74592;48.846;2.358;2024-02-04T08:06:54;2.85;;;1.20;;
84392;SDS011;74592;48.846;2.358;2024-02-04T08:09:19;2.22;;;1.15;;
84392;SDS011;74592;48.846;2.358;2024-02-04T08:11:45;2.45;;;1.17;;
84392;SDS011;74592;48.846;2.358;2024-02-04T08:14:12;2.05;;;1.15;;
84392;SDS011;74592;48.846;2.358;2024-02-04T08:16:39;2.40;;;1.40;;
84392;SDS011;74592;48.846;2.358;2024-02-04T08:19:05;3.50;;;1.40;;
84392;SDS011;74592;48.846;2.358;2024-02-04T08:21:31;2.90;;;1.02;;
84392;SDS011;74592;48.846;2.358;2024-02-04T08:23:57;2.15;;;1.10;;
84392;SDS011;74592;48.846;2.358;2024-02-04T08:26:23;1.90;;;1.08;;
84392;SDS011;74592;48.846;2.358;2024-02-04T08:28:49;2.22;;;1.15;;
84392;SDS011;74592;48.846;2.358;2024-02-04T08:31:15;2.95;;;1.15;;
84392;SDS011;74592;48.846;2.358;2024-02-04T08:33:41;2.97;;;1.10;;
84392;SDS011;74592;48.846;2.358;2024-02-04T08:36:06;2.00;;;1.10;;
84392;SDS011;74592;48.846;2.358;2024-02-04T08:38:35;2.47;;;1.23;;
84392;SDS011;74592;48.846;2.358;2024-02-04T08:41:02;2.50;;;1.10;;
84392;SDS011;74592;48.846;2.358;2024-02-04T08:43:28;2.05;;;1.02;;
84392;SDS011;74592;48.846;2.358;2024-02-04T08:45:53;3.30;;;1.20;;
84392;SDS011;74592;48.846;2.358;2024-02-04T08:48:19;2.60;;;0.93;;
84392;SDS011;74592;48.846;2.358;2024-02-04T08:50:44;2.03;;;1.00;;
84392;SDS011;74592;48.846;2.358;2024-02-04T08:53:10;2.20;;;1.02;;
84392;SDS011;74592;48.846;2.358;2024-02-04T08:55:35;2.60;;;1.10;;
84392;SDS011;74592;48.846;2.358;2024-02-04T08:58:01;4.30;;;1.83;;
84392;SDS011;74592;48.846;2.358;2024-02-04T09:00:27;2.22;;;1.10;;
84392;SDS011;74592;48.846;2.358;2024-02-04T09:02:52;14.43;;;9.27;;
84392;SDS011;74592;48.846;2.358;2024-02-04T09:05:18;45.10;;;33.00;;
84392;SDS011;74592;48.846;2.358;2024-02-04T09:07:45;88.07;;;65.75;;
84392;SDS011;74592;48.846;2.358;2024-02-04T09:10:10;151.75;;;110.68;;
84392;SDS011;74592;48.846;2.358;2024-02-04T09:12:36;187.00;;;136.32;;
84392;SDS011;74592;48.846;2.358;2024-02-04T09:15:02;210.80;;;151.88;;
84392;SDS011;74592;48.846;2.358;2024-02-04T09:17:29;218.20;;;161.75;;
84392;SDS011;74592;48.846;2.358;2024-02-04T09:19:57;207.15;;;155.13;;
84392;SDS011;74592;48.846;2.358;2024-02-04T09:22:22;212.30;;;161.18;;
84392;SDS011;74592;48.846;2.358;2024-02-04T09:24:48;210.38;;;155.30;;
84392;SDS011;74592;48.846;2.358;2024-02-04T09:27:14;193.90;;;147.40;;
84392;SDS011;74592;48.846;2.358;2024-02-04T09:29:39;189.15;;;140.45;;
84392;SDS011;74592;48.846;2.358;2024-02-04T09:32:05;188.30;;;142.45;;
84392;SDS011;74592;48.846;2.358;2024-02-04T09:34:31;206.30;;;160.10;;
84392;SDS011;74592;48.846;2.358;2024-02-04T09:36:56;226.23;;;177.23;;
84392;SDS011;74592;48.846;2.358;2024-02-04T09:39:22;224.80;;;172.73;;
84392;SDS011;74592;48.846;2.358;2024-02-04T09:41:47;217.60;;;169.88;;
84392;SDS011;74592;48.846;2.358;2024-02-04T09:44:13;216.10;;;169.38;;
84392;SDS011;74592;48.846;2.358;2024-02-04T09:46:40;244.85;;;190.63;;
84392;SDS011;74592;48.846;2.358;2024-02-04T09:49:05;257.73;;;202.43;;
84392;SDS011;74592;48.846;2.358;2024-02-04T09:51:33;248.18;;;197.48;;
84392;SDS011;74592;48.846;2.358;2024-02-04T09:54:01;239.40;;;188.93;;
84392;SDS011;74592;48.846;2.358;2024-02-04T09:56:31;231.70;;;181.25;;
84392;SDS011;74592;48.846;2.358;2024-02-04T09:58:58;218.43;;;171.82;;
84392;SDS011;74592;48.846;2.358;2024-02-04T10:01:23;214.93;;;166.68;;
84392;SDS011;74592;48.846;2.358;2024-02-04T10:03:51;216.27;;;164.80;;
84392;SDS011;74592;48.846;2.358;2024-02-04T10:06:17;207.23;;;158.40;;
84392;SDS011;74592;48.846;2.358;2024-02-04T10:08:42;207.65;;;156.90;;
84392;SDS011;74592;48.846;2.358;2024-02-04T10:11:08;201.23;;;153.20;;
84392;SDS011;74592;48.846;2.358;2024-02-04T10:13:44;198.15;;;150.82;;
84392;SDS011;74592;48.846;2.358;2024-02-04T10:16:11;194.30;;;152.55;;
84392;SDS011;74592;48.846;2.358;2024-02-04T10:18:37;206.43;;;162.77;;
84392;SDS011;74592;48.846;2.358;2024-02-04T10:21:13;215.95;;;168.63;;
84392;SDS011;74592;48.846;2.358;2024-02-04T10:23:46;210.63;;;163.15;;
84392;SDS011;74592;48.846;2.358;2024-02-04T10:26:12;214.68;;;169.20;;
84392;SDS011;74592;48.846;2.358;2024-02-04T10:28:38;204.75;;;161.15;;
84392;SDS011;74592;48.846;2.358;2024-02-04T10:31:06;202.57;;;161.20;;
84392;SDS011;74592;48.846;2.358;2024-02-04T10:33:38;195.05;;;155.70;;
84392;SDS011;74592;48.846;2.358;2024-02-04T10:36:04;200.10;;;160.05;;
84392;SDS011;74592;48.846;2.358;2024-02-04T10:38:30;228.13;;;177.27;;
84392;SDS011;74592;48.846;2.358;2024-02-04T10:41:00;247.70;;;202.65;;
84392;SDS011;74592;48.846;2.358;2024-02-04T10:43:32;248.73;;;202.38;;
84392;SDS011;74592;48.846;2.358;2024-02-04T10:46:01;237.52;;;190.98;;
84392;SDS011;74592;48.846;2.358;2024-02-04T10:48:34;230.15;;;185.07;;
84392;SDS011;74592;48.846;2.358;2024-02-04T10:51:07;217.27;;;168.40;;
84392;SDS011;74592;48.846;2.358;2024-02-04T10:53:39;195.85;;;156.13;;
84392;SDS011;74592;48.846;2.358;2024-02-04T10:56:11;202.77;;;157.38;;
84392;SDS011;74592;48.846;2.358;2024-02-04T10:58:44;198.90;;;160.57;;
84392;SDS011;74592;48.846;2.358;2024-02-04T11:01:11;209.45;;;167.70;;
84392;SDS011;74592;48.846;2.358;2024-02-04T11:03:38;200.73;;;160.52;;
84392;SDS011;74592;48.846;2.358;2024-02-04T11:06:05;193.27;;;152.68;;
84392;SDS011;74592;48.846;2.358;2024-02-04T11:08:32;206.13;;;166.57;;
84392;SDS011;74592;48.846;2.358;2024-02-04T11:10:59;227.90;;;183.23;;
84392;SDS011;74592;48.846;2.358;2024-02-04T11:13:25;246.80;;;200.38;;
84392;SDS011;74592;48.846;2.358;2024-02-04T11:15:53;258.58;;;206.77;;
84392;SDS011;74592;48.846;2.358;2024-02-04T11:26:33;233.70;;;184.52;;
84392;SDS011;74592;48.846;2.358;2024-02-04T11:28:59;226.15;;;176.75;;
84392;SDS011;74592;48.846;2.358;2024-02-04T11:31:27;213.23;;;169.25;;
84392;SDS011;74592;48.846;2.358;2024-02-04T11:33:54;218.45;;;170.40;;
84392;SDS011;74592;48.846;2.358;2024-02-04T11:36:24;213.30;;;166.95;;
84392;SDS011;74592;48.846;2.358;2024-02-04T11:38:50;214.38;;;164.75;;
84392;SDS011;74592;48.846;2.358;2024-02-04T11:41:22;193.73;;;155.10;;
84392;SDS011;74592;48.846;2.358;2024-02-04T11:43:51;195.43;;;153.20;;
84392;SDS011;74592;48.846;2.358;2024-02-04T11:46:19;190.73;;;150.63;;
84392;SDS011;74592;48.846;2.358;2024-02-04T11:48:51;202.00;;;156.73;;
84392;SDS011;74592;48.846;2.358;2024-02-04T11:53:46;194.10;;;151.15;;
84392;SDS011;74592;48.846;2.358;2024-02-04T11:56:12;196.90;;;153.73;;
84392;SDS011;74592;48.846;2.358;2024-02-04T11:58:38;194.27;;;155.10;;
84392;SDS011;74592;48.846;2.358;2024-02-04T12:01:05;184.63;;;145.50;;
84392;SDS011;74592;48.846;2.358;2024-02-04T12:03:36;186.38;;;146.30;;
84392;SDS011;74592;48.846;2.358;2024-02-04T12:06:02;180.10;;;140.30;;
84392;SDS011;74592;48.846;2.358;2024-02-04T12:08:29;168.52;;;133.00;;
84392;SDS011;74592;48.846;2.358;2024-02-04T12:10:59;171.15;;;133.52;;
84392;SDS011;74592;48.846;2.358;2024-02-04T12:13:27;169.25;;;130.00;;
84392;SDS011;74592;48.846;2.358;2024-02-04T12:15:54;174.70;;;134.48;;
84392;SDS011;74592;48.846;2.358;2024-02-04T12:18:19;168.75;;;134.15;;
84392;SDS011;74592;48.846;2.358;2024-02-04T12:20:46;164.95;;;131.32;;
84392;SDS011;74592;48.846;2.358;2024-02-04T12:23:16;163.82;;;125.55;;
84392;SDS011;74592;48.846;2.358;2024-02-04T12:25:43;156.48;;;123.72;;
84392;SDS011;74592;48.846;2.358;2024-02-04T12:28:09;150.60;;;121.25;;
84392;SDS011;74592;48.846;2.358;2024-02-04T12:30:34;166.43;;;134.32;;
84392;SDS011;74592;48.846;2.358;2024-02-04T12:33:04;188.20;;;147.20;;
84392;SDS011;74592;48.846;2.358;2024-02-04T12:35:30;199.63;;;157.45;;
84392;SDS011;74592;48.846;2.358;2024-02-04T12:37:57;248.23;;;193.18;;
84392;SDS011;74592;48.846;2.358;2024-02-04T12:40:24;256.88;;;206.32;;
84392;SDS011;74592;48.846;2.358;2024-02-04T12:43:00;260.35;;;209.73;;
84392;SDS011;74592;48.846;2.358;2024-02-04T12:45:27;291.92;;;236.93;;
84392;SDS011;74592;48.846;2.358;2024-02-04T12:47:54;326.92;;;269.42;;
84392;SDS011;74592;48.846;2.358;2024-02-04T12:50:21;359.45;;;295.80;;
84392;SDS011;74592;48.846;2.358;2024-02-04T12:52:47;416.30;;;336.50;;
84392;SDS011;74592;48.846;2.358;2024-02-04T12:55:23;423.45;;;340.50;;
84392;SDS011;74592;48.846;2.358;2024-02-04T12:57:49;426.30;;;343.42;;
84392;SDS011;74592;48.846;2.358;2024-02-04T13:00:18;408.02;;;329.90;;
84392;SDS011;74592;48.846;2.358;2024-02-04T13:02:44;402.35;;;328.95;;
84392;SDS011;74592;48.846;2.358;2024-02-04T13:05:10;389.98;;;320.73;;
84392;SDS011;74592;48.846;2.358;2024-02-04T13:07:46;374.70;;;308.08;;
84392;SDS011;74592;48.846;2.358;2024-02-04T13:10:15;380.25;;;309.48;;
84392;SDS011;74592;48.846;2.358;2024-02-04T13:12:42;370.27;;;300.42;;
84392;SDS011;74592;48.846;2.358;2024-02-04T13:15:08;350.02;;;285.92;;
84392;SDS011;74592;48.846;2.358;2024-02-04T13:17:34;337.38;;;272.20;;
84392;SDS011;74592;48.846;2.358;2024-02-04T13:20:00;344.88;;;279.48;;
84392;SDS011;74592;48.846;2.358;2024-02-04T13:22:25;345.42;;;280.67;;
84392;SDS011;74592;48.846;2.358;2024-02-04T13:24:51;356.98;;;295.20;;
84392;SDS011;74592;48.846;2.358;2024-02-04T13:27:16;359.10;;;295.70;;
84392;SDS011;74592;48.846;2.358;2024-02-04T13:29:42;366.60;;;299.38;;
84392;SDS011;74592;48.846;2.358;2024-02-04T13:32:08;347.85;;;287.70;;
84392;SDS011;74592;48.846;2.358;2024-02-04T13:34:33;350.75;;;286.33;;
84392;SDS011;74592;48.846;2.358;2024-02-04T13:36:59;354.60;;;292.35;;
84392;SDS011;74592;48.846;2.358;2024-02-04T13:39:24;354.20;;;292.95;;
84392;SDS011;74592;48.846;2.358;2024-02-04T13:41:50;366.58;;;299.95;;
84392;SDS011;74592;48.846;2.358;2024-02-04T13:44:15;361.77;;;291.02;;
84392;SDS011;74592;48.846;2.358;2024-02-04T13:46:41;355.17;;;291.73;;
84392;SDS011;74592;48.846;2.358;2024-02-04T13:49:08;365.75;;;297.05;;
84392;SDS011;74592;48.846;2.358;2024-02-04T13:51:34;349.10;;;281.30;;
84392;SDS011;74592;48.846;2.358;2024-02-04T13:54:01;332.52;;;267.45;;
84392;SDS011;74592;48.846;2.358;2024-02-04T13:56:26;303.73;;;244.52;;
84392;SDS011;74592;48.846;2.358;2024-02-04T13:58:52;313.73;;;255.93;;
84392;SDS011;74592;48.846;2.358;2024-02-04T14:01:17;296.20;;;237.70;;
84392;SDS011;74592;48.846;2.358;2024-02-04T14:03:45;273.95;;;221.38;;
84392;SDS011;74592;48.846;2.358;2024-02-04T14:06:10;260.58;;;205.23;;
84392;SDS011;74592;48.846;2.358;2024-02-04T14:08:37;248.32;;;193.15;;
84392;SDS011;74592;48.846;2.358;2024-02-04T14:11:03;245.13;;;194.00;;
84392;SDS011;74592;48.846;2.358;2024-02-04T14:13:29;239.02;;;181.27;;
84392;SDS011;74592;48.846;2.358;2024-02-04T14:15:54;213.88;;;163.68;;
84392;SDS011;74592;48.846;2.358;2024-02-04T14:18:20;206.05;;;158.98;;
84392;SDS011;74592;48.846;2.358;2024-02-04T14:20:45;198.05;;;153.60;;
84392;SDS011;74592;48.846;2.358;2024-02-04T14:23:11;191.70;;;146.82;;
84392;SDS011;74592;48.846;2.358;2024-02-04T14:25:37;188.27;;;142.05;;
84392;SDS011;74592;48.846;2.358;2024-02-04T14:28:02;185.43;;;141.52;;
84392;SDS011;74592;48.846;2.358;2024-02-04T14:30:29;182.88;;;139.85;;
84392;SDS011;74592;48.846;2.358;2024-02-04T14:32:54;118.70;;;88.63;;